createdAt,value
2023-04-24T00:09:56.747Z,14.0
2023-04-24T00:22:56.748Z,14.0
2023-04-24T00:35:56.753Z,14.0
2023-04-24T00:48:56.758Z,14.0
2023-04-24T01:01:56.764Z,13.9
2023-04-24T01:14:56.775Z,14.0
2023-04-24T01:27:56.777Z,14.1
2023-04-24T01:40:56.791Z,14.1
2023-04-24T01:53:56.799Z,14.0
2023-04-24T02:06:56.779Z,14.1
2023-04-24T02:19:56.824Z,14.2
2023-04-24T02:32:56.804Z,14.2
2023-04-24T02:45:56.830Z,14.3
2023-04-24T02:58:56.836Z,14.3
2023-04-24T03:11:56.825Z,14.3
2023-04-24T03:24:56.821Z,14.3
2023-04-24T03:37:56.845Z,14.3
2023-04-24T03:50:56.837Z,14.2
2023-04-24T04:03:57.089Z,14.1
2023-04-24T04:16:56.917Z,13.5
2023-04-24T04:30:56.855Z,12.5
2023-04-24T04:44:56.861Z,12.0
2023-04-24T04:58:56.848Z,11.7
2023-04-24T05:12:56.875Z,11.7
2023-04-24T05:26:56.887Z,11.7
2023-04-24T05:41:56.890Z,11.7
2023-04-24T05:55:56.890Z,11.7
2023-04-24T06:09:56.906Z,11.8
2023-04-24T06:23:56.898Z,12.0
2023-04-24T06:37:56.895Z,12.1
2023-04-24T06:51:57.074Z,12.1
2023-04-24T07:06:56.935Z,12.0
2023-04-24T07:20:56.929Z,12.0
2023-04-24T07:45:56.947Z,12.0
2023-04-24T07:59:56.921Z,11.5
2023-04-24T08:13:56.944Z,11.7
2023-04-24T08:28:56.936Z,11.7
2023-04-24T08:42:56.950Z,11.6
2023-04-24T08:56:56.970Z,11.9
2023-04-24T09:10:56.960Z,12.9
2023-04-24T09:24:56.986Z,13.9
2023-04-24T09:38:56.951Z,15.0
2023-04-24T09:52:56.970Z,14.8
2023-04-24T10:06:56.973Z,14.8
2023-04-24T10:21:56.989Z,15.6
2023-04-24T10:36:58.223Z,15.8
2023-04-24T10:54:57.106Z,16.4
2023-04-24T11:08:57.007Z,16.9
2023-04-24T11:22:57.018Z,16.9
2023-04-24T11:36:57.025Z,16.9
2023-04-24T12:13:57.078Z,17.3
2023-04-24T12:27:57.035Z,17.5
2023-04-24T12:50:57.039Z,18.7
2023-04-24T13:10:57.047Z,20.0
2023-04-24T13:25:57.048Z,21.3
2023-04-24T13:52:57.065Z,22.0
2023-04-24T14:07:57.054Z,22.5
2023-04-24T14:30:57.071Z,21.9
2023-04-24T14:58:57.082Z,23.4
2023-04-24T16:16:57.100Z,17.6
2023-04-24T21:42:57.215Z,12.0
2023-04-24T21:56:57.215Z,11.8
2023-04-24T22:49:57.232Z,10.5
2023-04-24T23:11:57.226Z,9.9
2023-04-24T23:24:57.250Z,9.8
2023-04-24T23:37:57.273Z,9.6
2023-04-24T23:50:57.289Z,9.2
